sensor_id;sensor_type;location;lat;lon;timestamp;pressure;altitude;pressure_sealevel;temperature;humidity
43155;BME280;34212;51.018;13.586;2023-05-08T05:04:49;98708.13;;;8.10;66.26
43155;BME280;34212;51.018;13.586;2023-05-08T05:09:51;98698.44;;;8.19;66.57
43155;BME280;34212;51.018;13.586;2023-05-08T05:14:53;98710.03;;;8.27;67.25
43155;BME280;34212;51.018;13.586;2023-05-08T05:19:56;98700.81;;;8.41;66.99
43155;BME280;34212;51.018;13.586;2023-05-08T05:24:57;98708.47;;;8.54;67.27
43155;BME280;34212;51.018;13.586;2023-05-08T05:29:59;98710.28;;;8.63;67.52
43155;BME280;34212;51.018;13.586;2023-05-08T05:35:01;98712.72;;;8.74;67.22
43155;BME280;34212;51.018;13.586;2023-05-08T05:40:03;98710.56;;;8.88;67.44
43155;BME280;34212;51.018;13.586;2023-05-08T05:45:08;98710.38;;;8.99;66.88
43155;BME280;34212;51.018;13.586;2023-05-08T05:50:09;98716.34;;;9.11;67.46
43155;BME280;34212;51.018;13.586;2023-05-08T05:55:11;98716.00;;;9.23;67.62
43155;BME280;34212;51.018;13.586;2023-05-08T06:00:14;98713.44;;;9.32;67.53
43155;BME280;34212;51.018;13.586;2023-05-08T06:05:23;98725.56;;;9.44;67.33
43155;BME280;34212;51.018;13.586;2023-05-08T06:10:25;98720.47;;;9.51;67.33
43155;BME280;34212;51.018;13.586;2023-05-08T06:15:27;98722.88;;;9.62;67.90
43155;BME280;34212;51.018;13.586;2023-05-08T06:20:28;98716.50;;;9.73;67.18
43155;BME280;34212;51.018;13.586;2023-05-08T06:25:30;98722.41;;;9.84;67.51
43155;BME280;34212;51.018;13.586;2023-05-08T06:30:31;98721.19;;;9.97;67.68
43155;BME280;34212;51.018;13.586;2023-05-08T06:35:33;98725.59;;;10.06;67.51
43155;BME280;34212;51.018;13.586;2023-05-08T06:40:35;98733.50;;;10.15;67.58
43155;BME280;34212;51.018;13.586;2023-05-08T06:45:36;98729.09;;;10.24;67.21
43155;BME280;34212;51.018;13.586;2023-05-08T06:50:38;98731.84;;;10.32;66.85
43155;BME280;34212;51.018;13.586;2023-05-08T06:55:44;98725.41;;;10.43;67.20
43155;BME280;34212;51.018;13.586;2023-05-08T07:00:45;98723.34;;;10.55;67.09
43155;BME280;34212;51.018;13.586;2023-05-08T07:05:47;98727.41;;;10.67;66.70
43155;BME280;34212;51.018;13.586;2023-05-08T07:10:48;98726.97;;;10.80;66.25
43155;BME280;34212;51.018;13.586;2023-05-08T07:15:50;98729.06;;;10.94;66.14
43155;BME280;34212;51.018;13.586;2023-05-08T07:20:51;98720.97;;;11.12;66.16
43155;BME280;34212;51.018;13.586;2023-05-08T07:25:53;98726.69;;;11.25;65.56
43155;BME280;34212;51.018;13.586;2023-05-08T07:30:55;98730.22;;;11.42;65.70
43155;BME280;34212;51.018;13.586;2023-05-08T07:35:57;98727.25;;;11.62;65.38
43155;BME280;34212;51.018;13.586;2023-05-08T07:40:59;98728.47;;;11.75;64.90
43155;BME280;34212;51.018;13.586;2023-05-08T07:46:02;98732.53;;;11.88;64.15
43155;BME280;34212;51.018;13.586;2023-05-08T07:51:04;98723.00;;;12.01;63.86
43155;BME280;34212;51.018;13.586;2023-05-08T07:56:06;98721.34;;;12.17;63.72
43155;BME280;34212;51.018;13.586;2023-05-08T08:01:07;98725.34;;;12.29;63.71
43155;BME280;34212;51.018;13.586;2023-05-08T08:06:09;98731.88;;;12.43;63.26
43155;BME280;34212;51.018;13.586;2023-05-08T08:11:10;98740.84;;;12.58;62.67
43155;BME280;34212;51.018;13.586;2023-05-08T08:16:12;98730.00;;;12.68;62.28
43155;BME280;34212;51.018;13.586;2023-05-08T08:21:13;98732.28;;;12.79;61.73
43155;BME280;34212;51.018;13.586;2023-05-08T08:26:15;98731.94;;;12.90;61.04
43155;BME280;34212;51.018;13.586;2023-05-08T08:31:16;98726.38;;;13.00;60.85
43155;BME280;34212;51.018;13.586;2023-05-08T08:36:20;98730.56;;;13.03;60.61
43155;BME280;34212;51.018;13.586;2023-05-08T08:41:21;98739.22;;;13.13;60.59
43155;BME280;34212;51.018;13.586;2023-05-08T08:46:25;98740.53;;;13.25;60.46
43155;BME280;34212;51.018;13.586;2023-05-08T08:51:35;98733.09;;;13.35;60.36
43155;BME280;34212;51.018;13.586;2023-05-08T08:56:38;98730.03;;;13.47;59.83
43155;BME280;34212;51.018;13.586;2023-05-08T09:01:43;98738.53;;;13.58;59.64
43155;BME280;34212;51.018;13.586;2023-05-08T09:06:45;98736.25;;;13.70;59.13
43155;BME280;34212;51.018;13.586;2023-05-08T09:11:47;98729.13;;;13.85;59.20
43155;BME280;34212;51.018;13.586;2023-05-08T09:16:48;98723.66;;;14.02;58.59
43155;BME280;34212;51.018;13.586;2023-05-08T09:21:50;98738.78;;;14.18;58.98
43155;BME280;34212;51.018;13.586;2023-05-08T09:26:52;98729.09;;;14.31;58.53
43155;BME280;34212;51.018;13.586;2023-05-08T09:31:53;98726.94;;;14.50;57.24
43155;BME280;34212;51.018;13.586;2023-05-08T09:42:03;98708.84;;;14.82;56.03
43155;BME280;34212;51.018;13.586;2023-05-08T09:47:12;98710.34;;;14.99;56.55
43155;BME280;34212;51.018;13.586;2023-05-08T09:52:14;98717.16;;;15.16;56.26
43155;BME280;34212;51.018;13.586;2023-05-08T09:57:16;98721.88;;;15.29;55.47
43155;BME280;34212;51.018;13.586;2023-05-08T10:02:18;98708.78;;;15.41;54.43
43155;BME280;34212;51.018;13.586;2023-05-08T10:07:34;98712.66;;;15.53;53.36
43155;BME280;34212;51.018;13.586;2023-05-08T10:12:37;98709.47;;;15.64;53.66
43155;BME280;34212;51.018;13.586;2023-05-08T10:17:43;98712.97;;;15.80;52.66
43155;BME280;34212;51.018;13.586;2023-05-08T10:22:49;98713.22;;;15.85;52.18
43155;BME280;34212;51.018;13.586;2023-05-08T10:28:22;98709.75;;;15.91;50.64
43155;BME280;34212;51.018;13.586;2023-05-08T10:33:24;98706.31;;;15.97;50.39
43155;BME280;34212;51.018;13.586;2023-05-08T10:38:32;98701.19;;;16.02;50.20
43155;BME280;34212;51.018;13.586;2023-05-08T10:43:34;98697.97;;;16.13;49.46
43155;BME280;34212;51.018;13.586;2023-05-08T10:48:59;98691.50;;;16.29;49.00
43155;BME280;34212;51.018;13.586;2023-05-08T10:54:11;98691.16;;;16.39;48.26
43155;BME280;34212;51.018;13.586;2023-05-08T10:59:18;98689.97;;;16.48;48.92
43155;BME280;34212;51.018;13.586;2023-05-08T11:04:21;98686.53;;;16.61;48.38
43155;BME280;34212;51.018;13.586;2023-05-08T11:15:08;98682.16;;;16.88;47.00
43155;BME280;34212;51.018;13.586;2023-05-08T11:20:09;98693.63;;;17.03;47.10
43155;BME280;34212;51.018;13.586;2023-05-08T11:25:11;98688.13;;;17.18;46.34
43155;BME280;34212;51.018;13.586;2023-05-08T11:35:48;98679.34;;;17.58;45.54
43155;BME280;34212;51.018;13.586;2023-05-08T11:41:01;98667.13;;;17.68;44.99
43155;BME280;34212;51.018;13.586;2023-05-08T11:51:05;98665.09;;;17.77;44.26
43155;BME280;34212;51.018;13.586;2023-05-08T11:56:07;98666.75;;;17.78;44.13
43155;BME280;34212;51.018;13.586;2023-05-08T12:01:08;98673.00;;;17.85;44.21
43155;BME280;34212;51.018;13.586;2023-05-08T12:06:10;98679.47;;;18.04;43.07
43155;BME280;34212;51.018;13.586;2023-05-08T12:11:21;98660.75;;;18.16;42.08
43155;BME280;34212;51.018;13.586;2023-05-08T12:16:23;98672.00;;;18.26;41.94
43155;BME280;34212;51.018;13.586;2023-05-08T12:21:25;98667.00;;;18.36;41.41
43155;BME280;34212;51.018;13.586;2023-05-08T12:26:27;98652.88;;;18.48;43.12
43155;BME280;34212;51.018;13.586;2023-05-08T12:31:29;98654.31;;;18.57;41.86
43155;BME280;34212;51.018;13.586;2023-05-08T12:36:34;98651.59;;;18.63;40.04
43155;BME280;34212;51.018;13.586;2023-05-08T12:41:41;98642.44;;;18.58;39.44
43155;BME280;34212;51.018;13.586;2023-05-08T12:46:53;98649.09;;;18.55;39.85
43155;BME280;34212;51.018;13.586;2023-05-08T12:52:11;98643.25;;;18.65;41.15
43155;BME280;34212;51.018;13.586;2023-05-08T12:57:17;98645.69;;;18.93;40.60
43155;BME280;34212;51.018;13.586;2023-05-08T13:02:21;98638.34;;;19.52;39.38
43155;BME280;34212;51.018;13.586;2023-05-08T13:07:30;98647.06;;;21.83;37.28
43155;BME280;34212;51.018;13.586;2023-05-08T13:12:32;98634.19;;;24.22;34.88
43155;BME280;34212;51.018;13.586;2023-05-08T13:17:34;98641.34;;;25.94;33.86
43155;BME280;34212;51.018;13.586;2023-05-08T13:22:36;98613.75;;;27.17;35.19
43155;BME280;34212;51.018;13.586;2023-05-08T13:27:37;98624.91;;;28.40;32.83
43155;BME280;34212;51.018;13.586;2023-05-08T13:32:39;98623.69;;;28.92;31.21
43155;BME280;34212;51.018;13.586;2023-05-08T13:37:40;98613.00;;;29.01;30.14
43155;BME280;34212;51.018;13.586;2023-05-08T13:42:42;98605.69;;;28.61;29.18
43155;BME280;34212;51.018;13.586;2023-05-08T13:47:45;98598.53;;;27.57;29.17
43155;BME280;34212;51.018;13.586;2023-05-08T13:52:47;98596.25;;;26.29;29.81
43155;BME280;34212;51.018;13.586;2023-05-08T13:57:49;98593.25;;;24.95;31.01
43155;BME280;34212;51.018;13.586;2023-05-08T14:02:51;98598.28;;;23.91;32.04
43155;BME280;34212;51.018;13.586;2023-05-08T14:07:53;98602.88;;;23.17;33.13
43155;BME280;34212;51.018;13.586;2023-05-08T14:12:55;98599.56;;;22.63;32.38
43155;BME280;34212;51.018;13.586;2023-05-08T14:17:56;98607.38;;;22.24;32.64
43155;BME280;34212;51.018;13.586;2023-05-08T14:22:58;98592.44;;;22.14;32.58
43155;BME280;34212;51.018;13.586;2023-05-08T14:28:00;98594.78;;;21.99;31.81
43155;BME280;34212;51.018;13.586;2023-05-08T14:33:02;98579.56;;;21.86;31.46
43155;BME280;34212;51.018;13.586;2023-05-08T14:38:03;98577.22;;;22.02;31.29
43155;BME280;34212;51.018;13.586;2023-05-08T14:43:05;98563.03;;;22.11;30.77
43155;BME280;34212;51.018;13.586;2023-05-08T14:48:07;98570.72;;;21.91;31.10
43155;BME280;34212;51.018;13.586;2023-05-08T14:53:08;98570.81;;;21.73;31.03
43155;BME280;34212;51.018;13.586;2023-05-08T14:58:10;98563.97;;;22.05;30.28
43155;BME280;34212;51.018;13.586;2023-05-08T15:03:11;98554.09;;;22.98;31.27
43155;BME280;34212;51.018;13.586;2023-05-08T15:08:13;98557.69;;;23.61;31.17
43155;BME280;34212;51.018;13.586;2023-05-08T15:13:15;98545.56;;;24.75;31.15
43155;BME280;34212;51.018;13.586;2023-05-08T15:18:16;98561.13;;;25.46;31.14
43155;BME280;34212;51.018;13.586;2023-05-08T15:23:18;98551.31;;;24.79;31.96
43155;BME280;34212;51.018;13.586;2023-05-08T15:28:20;98550.56;;;23.72;33.42
43155;BME280;34212;51.018;13.586;2023-05-08T15:33:22;98558.63;;;22.81;34.10
43155;BME280;34212;51.018;13.586;2023-05-08T15:38:23;98566.97;;;22.16;35.23
43155;BME280;34212;51.018;13.586;2023-05-08T15:43:25;98563.13;;;21.70;36.08
43155;BME280;34212;51.018;13.586;2023-05-08T15:48:27;98561.88;;;21.42;36.57
43155;BME280;34212;51.018;13.586;2023-05-08T15:53:28;98560.72;;;21.19;36.69
43155;BME280;34212;51.018;13.586;2023-05-08T15:58:30;98554.72;;;20.99;37.08
43155;BME280;34212;51.018;13.586;2023-05-08T16:03:31;98541.06;;;20.75;37.56
43155;BME280;34212;51.018;13.586;2023-05-08T16:08:33;98548.75;;;20.60;37.81
43155;BME280;34212;51.018;13.586;2023-05-08T16:13:35;98548.03;;;20.46;37.50
43155;BME280;34212;51.018;13.586;2023-05-08T16:18:36;98536.81;;;20.24;37.67
43155;BME280;34212;51.018;13.586;2023-05-08T16:23:38;98537.41;;;20.08;38.12
43155;BME280;34212;51.018;13.586;2023-05-08T16:28:39;98530.91;;;20.09;37.91
43155;BME280;34212;51.018;13.586;2023-05-08T16:33:41;98540.44;;;20.37;37.85
43155;BME280;34212;51.018;13.586;2023-05-08T16:38:42;98540.59;;;20.97;37.59
43155;BME280;34212;51.018;13.586;2023-05-08T16:43:44;98543.28;;;21.27;36.63
43155;BME280;34212;51.018;13.586;2023-05-08T16:48:45;98550.19;;;21.11;37.10
43155;BME280;34212;51.018;13.586;2023-05-08T16:53:48;98548.59;;;20.73;37.31
43155;BME280;34212;51.018;13.586;2023-05-08T16:58:50;98544.50;;;20.27;38.31
43155;BME280;34212;51.018;13.586;2023-05-08T17:03:51;98544.28;;;19.86;38.72
43155;BME280;34212;51.018;13.586;2023-05-08T17:08:53;98549.09;;;19.52;39.02
43155;BME280;34212;51.018;13.586;2023-05-08T17:13:54;98544.50;;;19.21;39.75
43155;BME280;34212;51.018;13.586;2023-05-08T17:18:56;98550.28;;;18.92;40.09
43155;BME280;34212;51.018;13.586;2023-05-08T17:23:59;98550.97;;;18.68;40.35
43155;BME280;34212;51.018;13.586;2023-05-08T17:29:01;98555.19;;;18.44;40.31
43155;BME280;34212;51.018;13.586;2023-05-08T17:34:03;98560.03;;;18.22;40.61
43155;BME280;34212;51.018;13.586;2023-05-08T17:39:04;98558.19;;;18.03;40.93
43155;BME280;34212;51.018;13.586;2023-05-08T17:44:06;98562.34;;;17.78;40.96
43155;BME280;34212;51.018;13.586;2023-05-08T17:49:07;98569.38;;;17.60;41.34
43155;BME280;34212;51.018;13.586;2023-05-08T17:54:09;98570.81;;;17.42;42.09
43155;BME280;34212;51.018;13.586;2023-05-08T17:59:10;98574.72;;;17.20;42.44
43155;BME280;34212;51.018;13.586;2023-05-08T18:04:12;98585.84;;;17.03;42.37
43155;BME280;34212;51.018;13.586;2023-05-08T18:09:13;98585.19;;;16.88;42.51
43155;BME280;34212;51.018;13.586;2023-05-08T18:14:15;98593.56;;;16.72;42.80
43155;BME280;34212;51.018;13.586;2023-05-08T18:19:16;98588.94;;;16.52;43.41
43155;BME280;34212;51.018;13.586;2023-05-08T18:24:18;98593.59;;;16.37;43.47
43155;BME280;34212;51.018;13.586;2023-05-08T18:29:19;98591.22;;;16.21;44.04
43155;BME280;34212;51.018;13.586;2023-05-08T18:34:21;98590.50;;;16.05;43.87
43155;BME280;34212;51.018;13.586;2023-05-08T18:39:22;98593.47;;;15.89;44.27
43155;BME280;34212;51.018;13.586;2023-05-08T18:44:24;98611.13;;;15.70;44.83
43155;BME280;34212;51.018;13.586;2023-05-08T18:49:25;98608.84;;;15.52;44.84
43155;BME280;34212;51.018;13.586;2023-05-08T18:54:27;98613.81;;;15.34;45.29
43155;BME280;34212;51.018;13.586;2023-05-08T18:59:28;98611.00;;;15.20;45.29
43155;BME280;34212;51.018;13.586;2023-05-08T19:04:30;98618.25;;;15.05;45.70
43155;BME280;34212;51.018;13.586;2023-05-08T19:09:31;98621.41;;;14.94;46.16
43155;BME280;34212;51.018;13.586;2023-05-08T19:14:34;98629.56;;;14.86;46.24
43155;BME280;34212;51.018;13.586;2023-05-08T19:19:35;98619.94;;;14.76;46.68
43155;BME280;34212;51.018;13.586;2023-05-08T19:24:37;98620.72;;;14.70;46.59
43155;BME280;34212;51.018;13.586;2023-05-08T19:29:38;98623.66;;;14.61;46.90
43155;BME280;34212;51.018;13.586;2023-05-08T19:34:40;98626.25;;;14.54;46.98
43155;BME280;34212;51.018;13.586;2023-05-08T19:39:41;98622.25;;;14.50;47.59
43155;BME280;34212;51.018;13.586;2023-05-08T19:44:43;98632.06;;;14.43;47.59
43155;BME280;34212;51.018;13.586;2023-05-08T19:49:44;98619.75;;;14.33;48.00
43155;BME280;34212;51.018;13.586;2023-05-08T19:54:46;98621.69;;;14.25;48.28
43155;BME280;34212;51.018;13.586;2023-05-08T19:59:47;98631.50;;;14.18;48.54
43155;BME280;34212;51.018;13.586;2023-05-08T20:04:49;98637.94;;;14.08;48.44
43155;BME280;34212;51.018;13.586;2023-05-08T20:10:10;98629.03;;;13.93;48.90
43155;BME280;34212;51.018;13.586;2023-05-08T20:15:12;98641.66;;;13.84;49.12
43155;BME280;34212;51.018;13.586;2023-05-08T20:20:14;98637.59;;;13.74;49.42
43155;BME280;34212;51.018;13.586;2023-05-08T20:25:16;98638.00;;;13.62;49.87
43155;BME280;34212;51.018;13.586;2023-05-08T20:30:18;98636.53;;;13.52;50.06
43155;BME280;34212;51.018;13.586;2023-05-08T20:35:23;98633.28;;;13.42;50.31
43155;BME280;34212;51.018;13.586;2023-05-08T20:40:24;98623.47;;;13.34;50.53
43155;BME280;34212;51.018;13.586;2023-05-08T20:45:26;98626.19;;;13.26;50.60
43155;BME280;34212;51.018;13.586;2023-05-08T20:50:27;98619.00;;;13.18;50.75
43155;BME280;34212;51.018;13.586;2023-05-08T20:55:29;98628.72;;;13.11;50.86
43155;BME280;34212;51.018;13.586;2023-05-08T21:00:30;98629.63;;;13.03;51.22
43155;BME280;34212;51.018;13.586;2023-05-08T21:05:32;98626.97;;;12.95;51.21
43155;BME280;34212;51.018;13.586;2023-05-08T21:10:33;98621.84;;;12.85;51.24
43155;BME280;34212;51.018;13.586;2023-05-08T21:15:35;98623.56;;;12.78;51.67
43155;BME280;34212;51.018;13.586;2023-05-08T21:20:36;98626.25;;;12.70;52.06
43155;BME280;34212;51.018;13.586;2023-05-08T21:25:38;98613.56;;;12.64;51.97
43155;BME280;34212;51.018;13.586;2023-05-08T21:30:40;98608.91;;;12.58;51.73
43155;BME280;34212;51.018;13.586;2023-05-08T21:35:42;98600.59;;;12.53;51.60
43155;BME280;34212;51.018;13.586;2023-05-08T21:40:43;98600.25;;;12.47;51.47
43155;BME280;34212;51.018;13.586;2023-05-08T21:45:45;98602.44;;;12.44;51.16
43155;BME280;34212;51.018;13.586;2023-05-08T21:50:47;98602.13;;;12.39;51.11
43155;BME280;34212;51.018;13.586;2023-05-08T21:55:48;98602.66;;;12.34;50.61
